Time;durP1;ratioP1;P1;durP2;ratioP2;P2;SDS_P1;SDS_P2;PMS_P1;PMS_P2;Temp;Humidity;BMP_temperature;BMP_pressure;BME280_temperature;BME280_humidity;BME280_pressure;Samples;Min_cycle;Max_cycle;Signal;HPM_P1;HPM_P2
2022/01/09 00:00:49;;;;;;;3.38;2.59;;;;;;;-0.66;56.22;101557.98;450416;115;922645;-76
2022/01/09 00:01:53;;;;;;;3.89;2.52;;;;;;;-0.67;56.17;101556.27;449930;117;930559;-76
2022/01/09 00:02:57;;;;;;;2.29;1.98;;;;;;;-0.67;56.11;101558.95;443592;116;922761;-81
2022/01/09 00:04:01;;;;;;;3.58;2.36;;;;;;;-0.69;56.02;101556.38;454600;115;930494;-75
2022/01/09 00:05:06;;;;;;;3.33;2.01;;;;;;;-0.70;55.92;101552.00;447187;116;922578;-80
2022/01/09 00:06:14;;;;;;;3.76;2.33;;;;;;;-0.73;55.90;101552.25;454692;115;922638;-79
2022/01/09 00:07:17;;;;;;;3.09;2.61;;;;;;;-0.74;55.93;101547.00;446334;115;923458;-75
2022/01/09 00:08:20;;;;;;;2.44;1.89;;;;;;;-0.74;56.08;101547.00;445149;116;922712;-76
2022/01/09 00:09:23;;;;;;;2.96;2.22;;;;;;;-0.73;56.00;101548.71;446295;117;922712;-74
2022/01/09 00:10:29;;;;;;;2.98;2.13;;;;;;;-0.73;55.95;101549.57;448353;116;922711;-75
2022/01/09 00:11:33;;;;;;;3.94;2.38;;;;;;;-0.72;56.04;101548.60;444293;116;922599;-75
2022/01/09 00:12:36;;;;;;;2.44;2.06;;;;;;;-0.71;56.02;101549.42;447562;116;922623;-75
2022/01/09 00:13:40;;;;;;;3.93;2.29;;;;;;;-0.72;55.98;101540.57;455691;113;930464;-77
2022/01/09 00:14:43;;;;;;;2.91;2.55;;;;;;;-0.70;56.01;101545.78;463711;113;922550;-77
2022/01/09 00:15:48;;;;;;;3.88;2.32;;;;;;;-0.69;55.89;101539.46;462500;113;930637;-76
2022/01/09 00:16:52;;;;;;;2.57;2.23;;;;;;;-0.69;55.92;101545.67;465417;113;923146;-79
2022/01/09 00:17:56;;;;;;;5.59;3.07;;;;;;;-0.67;55.94;101540.20;464187;113;923235;-77
2022/01/09 00:18:59;;;;;;;4.70;2.42;;;;;;;-0.66;55.83;101536.56;464709;113;923158;-77
2022/01/09 00:20:05;;;;;;;3.85;2.58;;;;;;;-0.67;55.77;101530.35;455352;115;930534;-76
2022/01/09 00:21:09;;;;;;;2.69;2.07;;;;;;;-0.66;55.78;101532.03;455547;113;923045;-75
2022/01/09 00:22:15;;;;;;;4.37;2.39;;;;;;;-0.65;55.77;101533.74;464106;113;923166;-75
2022/01/09 00:23:18;;;;;;;3.24;2.31;;;;;;;-0.65;55.71;101536.42;463751;113;922673;-76
2022/01/09 00:24:22;;;;;;;4.11;1.75;;;;;;;-0.65;55.61;101532.89;463512;113;922643;-76
2022/01/09 00:25:27;;;;;;;3.38;1.73;;;;;;;-0.64;55.54;101523.88;464417;113;922533;-74
2022/01/09 00:26:31;;;;;;;2.55;1.79;;;;;;;-0.65;55.52;101522.17;462393;113;930411;-75
2022/01/09 00:27:40;;;;;;;3.95;2.12;;;;;;;-0.66;55.47;101518.64;463470;113;922687;-75
2022/01/09 00:28:41;;;;;;;2.49;1.70;;;;;;;-0.66;55.51;101517.81;462238;114;923039;-74
2022/01/09 00:29:44;;;;;;;1.76;1.51;;;;;;;-0.66;55.47;101515.96;462759;113;922717;-75
2022/01/09 00:30:48;;;;;;;1.43;1.21;;;;;;;-0.66;55.41;101510.61;452516;116;930418;-74
2022/01/09 00:31:51;;;;;;;2.86;1.70;;;;;;;-0.66;55.35;101515.96;443628;118;922622;-75
2022/01/09 00:32:54;;;;;;;2.74;1.59;;;;;;;-0.65;55.27;101516.81;442705;116;922837;-76
2022/01/09 00:33:58;;;;;;;2.92;1.78;;;;;;;-0.66;55.24;101515.14;442997;118;930458;-76
2022/01/09 00:35:02;;;;;;;2.93;1.46;;;;;;;-0.67;55.18;101511.61;442963;118;922822;-76
2022/01/09 00:36:05;;;;;;;2.12;1.56;;;;;;;-0.69;55.27;101507.33;450708;116;930373;-75
2022/01/09 00:37:08;;;;;;;3.46;1.81;;;;;;;-0.70;55.15;101511.83;449672;116;922767;-75
2022/01/09 00:38:12;;;;;;;3.09;1.69;;;;;;;-0.72;55.19;101508.44;442707;116;922642;-76
2022/01/09 00:39:16;;;;;;;2.49;1.61;;;;;;;-0.73;55.23;101503.19;446387;116;922781;-75
2022/01/09 00:40:19;;;;;;;2.74;1.55;;;;;;;-0.74;55.25;101507.69;447356;116;922528;-76
2022/01/09 00:41:23;;;;;;;1.96;1.66;;;;;;;-0.76;55.20;101493.56;446810;117;922651;-76
2022/01/09 00:42:27;;;;;;;3.25;1.43;;;;;;;-0.77;55.23;101497.20;445874;118;930727;-75
2022/01/09 00:43:31;;;;;;;3.76;1.82;;;;;;;-0.77;55.20;101496.38;447629;116;922526;-75
2022/01/09 00:44:34;;;;;;;2.41;1.71;;;;;;;-0.78;55.18;101490.17;446147;118;930227;-76
2022/01/09 00:45:39;;;;;;;2.77;1.53;;;;;;;-0.79;55.19;101487.60;452652;115;923518;-77
2022/01/09 00:46:42;;;;;;;3.37;1.49;;;;;;;-0.80;55.20;101485.89;444706;117;922549;-77
2022/01/09 00:47:45;;;;;;;2.39;1.62;;;;;;;-0.83;55.17;101488.83;447824;117;930385;-76
2022/01/09 00:48:49;;;;;;;3.44;1.82;;;;;;;-0.86;55.20;101485.40;449009;116;922728;-75
2022/01/09 00:49:52;;;;;;;2.42;1.44;;;;;;;-0.87;55.28;101490.86;447661;116;922676;-76
2022/01/09 00:50:56;;;;;;;1.69;1.51;;;;;;;-0.88;55.24;101481.13;448663;116;930321;-76
2022/01/09 00:51:59;;;;;;;2.46;1.77;;;;;;;-0.89;55.27;101482.98;448275;116;930295;-76
2022/01/09 00:53:05;;;;;;;2.39;1.66;;;;;;;-0.91;55.36;101484.91;447260;116;922757;-76
2022/01/09 00:54:09;;;;;;;2.33;1.41;;;;;;;-0.91;55.41;101487.59;443398;117;923024;-76
2022/01/09 00:55:13;;;;;;;2.32;1.57;;;;;;;-0.90;55.45;101488.44;449388;117;922512;-77
2022/01/09 00:56:18;;;;;;;1.81;1.38;;;;;;;-0.91;55.50;101484.91;441692;116;922594;-75
2022/01/09 00:57:21;;;;;;;2.71;1.77;;;;;;;-0.90;55.50;101491.97;443725;116;922641;-77
2022/01/09 00:58:24;;;;;;;1.77;1.38;;;;;;;-0.90;55.60;101478.59;453154;116;930625;-75
2022/01/09 00:59:28;;;;;;;1.75;1.48;;;;;;;-0.88;55.67;101475.77;447202;116;930372;-77
2022/01/09 01:00:35;;;;;;;3.72;1.70;;;;;;;-0.86;55.68;101476.52;444818;118;922644;-75
2022/01/09 01:01:36;;;;;;;2.31;1.69;;;;;;;-0.83;55.64;101470.08;446973;116;922967;-76
2022/01/09 01:02:41;;;;;;;1.66;1.37;;;;;;;-0.82;55.66;101477.97;452680;116;922631;-76
2022/01/09 01:03:45;;;;;;;5.27;1.38;;;;;;;-0.80;55.68;101464.47;453184;116;922967;-76
2022/01/09 01:04:51;;;;;;;1.90;1.35;;;;;;;-0.79;55.60;101467.03;454212;116;922738;-76
2022/01/09 01:05:53;;;;;;;2.64;1.33;;;;;;;-0.78;55.62;101467.89;453924;115;922839;-76
2022/01/09 01:06:57;;;;;;;2.54;1.39;;;;;;;-0.77;55.64;101464.25;443581;116;922627;-76
2022/01/09 01:08:00;;;;;;;2.90;2.38;;;;;;;-0.77;55.69;101470.42;454424;115;922568;-75
2022/01/09 01:09:04;;;;;;;3.71;2.01;;;;;;;-0.76;55.71;101452.54;448875;117;922568;-76
2022/01/09 01:10:08;;;;;;;2.05;1.85;;;;;;;-0.75;55.80;101457.78;448249;117;930618;-76
2022/01/09 01:11:12;;;;;;;3.31;1.49;;;;;;;-0.74;55.84;101458.64;448041;116;922642;-75
2022/01/09 01:12:16;;;;;;;2.66;1.75;;;;;;;-0.74;55.72;101451.46;448003;116;922570;-76
2022/01/09 01:13:19;;;;;;;2.63;1.91;;;;;;;-0.73;55.68;101445.14;453226;115;922958;-75
2022/01/09 01:14:24;;;;;;;2.31;1.96;;;;;;;-0.72;55.76;101451.35;444835;118;922964;-76
2022/01/09 01:15:28;;;;;;;1.97;1.50;;;;;;;-0.72;55.77;101435.28;452950;115;922631;-76
2022/01/09 01:16:31;;;;;;;2.08;1.64;;;;;;;-0.71;55.72;101451.20;452592;115;922609;-76
2022/01/09 01:17:36;;;;;;;2.64;1.89;;;;;;;-0.69;55.74;101443.91;452653;116;930270;-75
2022/01/09 01:18:43;;;;;;;3.15;2.01;;;;;;;-0.69;55.74;101441.23;453560;114;922621;-76
2022/01/09 01:19:46;;;;;;;2.33;2.10;;;;;;;-0.67;55.80;101431.27;452927;115;922662;-76
2022/01/09 01:20:51;;;;;;;3.58;2.39;;;;;;;-0.65;55.78;101431.13;452675;114;922665;-75
2022/01/09 01:21:56;;;;;;;3.82;2.56;;;;;;;-0.64;55.76;101422.97;444224;118;923191;-75
2022/01/09 01:22:59;;;;;;;3.27;2.61;;;;;;;-0.63;55.76;101427.36;443019;118;922524;-75
2022/01/09 01:24:02;;;;;;;5.49;2.22;;;;;;;-0.62;55.75;101423.72;452600;115;922647;-76
2022/01/09 01:25:06;;;;;;;2.38;1.98;;;;;;;-0.61;55.63;101425.42;443417;117;923152;-76
2022/01/09 01:26:10;;;;;;;2.42;1.85;;;;;;;-0.60;55.64;101424.42;446622;117;925423;-75
2022/01/09 01:27:13;;;;;;;2.87;2.09;;;;;;;-0.60;55.70;101424.42;462898;113;922916;-75
2022/01/09 01:28:17;;;;;;;1.96;1.69;;;;;;;-0.58;55.70;101417.13;449705;116;930328;-75
2022/01/09 01:29:21;;;;;;;2.22;1.71;;;;;;;-0.56;55.73;101419.70;463384;113;930465;-75
2022/01/09 01:30:24;;;;;;;2.24;1.77;;;;;;;-0.54;55.69;101421.26;463523;113;922581;-76
2022/01/09 01:31:28;;;;;;;2.53;1.72;;;;;;;-0.54;55.67;101418.58;463929;113;922675;-76
2022/01/09 01:32:31;;;;;;;1.84;1.39;;;;;;;-0.52;55.59;101418.47;463906;113;930302;-76
2022/01/09 01:33:35;;;;;;;1.89;1.64;;;;;;;-0.51;55.60;101409.46;463022;113;923382;-75
2022/01/09 01:34:38;;;;;;;2.19;1.51;;;;;;;-0.51;55.62;101407.64;463582;113;930303;-76
2022/01/09 01:35:42;;;;;;;2.54;1.68;;;;;;;-0.50;55.63;101400.45;463721;113;930323;-76
2022/01/09 01:36:46;;;;;;;1.59;1.43;;;;;;;-0.51;55.54;101407.64;463783;113;922581;-75
2022/01/09 01:37:49;;;;;;;2.46;1.87;;;;;;;-0.49;55.51;101399.45;463823;113;922732;-76
2022/01/09 01:38:53;;;;;;;2.02;1.81;;;;;;;-0.50;55.50;101392.42;463229;113;930815;-76
2022/01/09 01:39:56;;;;;;;3.05;1.40;;;;;;;-0.51;55.46;101394.24;463043;113;930562;-76
2022/01/09 01:41:00;;;;;;;2.23;1.67;;;;;;;-0.52;55.55;101392.53;462403;113;923130;-76
2022/01/09 01:42:04;;;;;;;2.72;1.49;;;;;;;-0.50;55.65;101389.74;463791;113;930443;-76
2022/01/09 01:43:08;;;;;;;1.89;1.52;;;;;;;-0.50;55.58;101385.20;461584;113;922594;-76
2022/01/09 01:44:12;;;;;;;1.59;1.37;;;;;;;-0.49;55.46;101388.73;462507;113;923030;-76
2022/01/09 01:45:16;;;;;;;1.55;1.32;;;;;;;-0.50;55.33;101387.06;462113;113;930268;-75
2022/01/09 01:46:20;;;;;;;2.04;1.34;;;;;;;-0.52;55.41;101381.82;462752;113;922709;-74
2022/01/09 01:47:23;;;;;;;1.84;1.46;;;;;;;-0.52;55.47;101378.28;463475;112;922619;-76
2022/01/09 01:48:27;;;;;;;1.98;1.34;;;;;;;-0.52;55.53;101379.14;462332;113;922724;-76
2022/01/09 01:49:31;;;;;;;1.76;1.22;;;;;;;-0.52;55.55;101375.61;462589;113;930176;-76
2022/01/09 01:50:38;;;;;;;1.57;1.27;;;;;;;-0.52;55.53;101372.93;460851;113;922846;-76
2022/01/09 01:51:43;;;;;;;3.10;1.74;;;;;;;-0.52;55.63;101375.61;461559;112;922520;-76
2022/01/09 01:52:51;;;;;;;1.73;1.36;;;;;;;-0.53;55.60;101372.08;462578;113;922869;-76
2022/01/09 01:53:55;;;;;;;2.48;1.87;;;;;;;-0.52;55.57;101367.57;462751;113;922847;-76
2022/01/09 01:54:59;;;;;;;2.07;1.40;;;;;;;-0.52;55.59;101364.89;464136;113;922501;-76
2022/01/09 01:56:04;;;;;;;2.19;1.54;;;;;;;-0.52;55.54;101363.07;463438;113;922719;-76
2022/01/09 01:57:09;;;;;;;1.99;1.78;;;;;;;-0.51;55.65;101364.78;463523;113;922461;-76
2022/01/09 01:58:12;;;;;;;2.41;1.16;;;;;;;-0.51;55.68;101370.14;463153;113;922605;-75
2022/01/09 01:59:15;;;;;;;2.23;1.31;;;;;;;-0.50;55.68;101366.45;462711;113;922659;-76
2022/01/09 02:00:20;;;;;;;1.89;1.29;;;;;;;-0.49;55.65;101364.63;464067;113;922906;-76
2022/01/09 02:01:23;;;;;;;2.36;1.38;;;;;;;-0.50;55.69;101363.78;462447;113;930255;-76
2022/01/09 02:02:27;;;;;;;2.26;1.14;;;;;;;-0.49;55.54;101356.59;462864;113;930560;-76
2022/01/09 02:03:30;;;;;;;1.72;1.24;;;;;;;-0.50;55.51;101363.78;462700;113;922511;-75
2022/01/09 02:04:33;;;;;;;1.77;1.39;;;;;;;-0.50;55.62;101357.59;461948;113;922725;-75
2022/01/09 02:05:39;;;;;;;1.96;1.11;;;;;;;-0.51;55.64;101353.21;463009;113;930266;-76
2022/01/09 02:06:44;;;;;;;2.14;1.45;;;;;;;-0.51;55.67;101350.53;463009;113;930257;-76
2022/01/09 02:07:50;;;;;;;2.26;1.18;;;;;;;-0.53;55.63;101349.80;462324;113;922806;-76
2022/01/09 02:08:54;;;;;;;2.50;1.61;;;;;;;-0.55;55.71;101347.23;462437;112;922878;-77
2022/01/09 02:09:57;;;;;;;2.32;1.59;;;;;;;-0.55;55.66;101355.27;462519;112;922569;-77
2022/01/09 02:11:01;;;;;;;2.41;1.36;;;;;;;-0.55;55.63;101346.41;463339;113;922592;-76
2022/01/09 02:12:06;;;;;;;2.16;1.67;;;;;;;-0.56;55.76;101348.23;462287;113;922895;-75
2022/01/09 02:13:09;;;;;;;2.34;1.31;;;;;;;-0.55;55.73;101341.87;461997;113;930519;-75
2022/01/09 02:14:12;;;;;;;3.10;1.40;;;;;;;-0.54;55.71;101343.58;462563;112;930278;-75
2022/01/09 02:15:43;;;;;;;1.60;1.12;;;;;;;-0.53;55.71;101339.94;461820;113;923122;-75
2022/01/09 02:16:48;;;;;;;2.37;1.28;;;;;;;-0.53;55.73;101345.29;464176;113;922724;-75
2022/01/09 02:17:52;;;;;;;3.23;1.27;;;;;;;-0.53;55.71;101334.58;463607;113;922498;-76
2022/01/09 02:18:58;;;;;;;1.85;1.30;;;;;;;-0.52;55.77;101338.97;464020;113;922545;-75
2022/01/09 02:20:03;;;;;;;1.92;1.13;;;;;;;-0.51;55.65;101340.67;462510;113;930709;-75
2022/01/09 02:21:06;;;;;;;2.11;1.28;;;;;;;-0.50;55.61;101336.98;463442;113;922540;-76
2022/01/09 02:22:11;;;;;;;2.80;1.55;;;;;;;-0.50;55.71;101333.48;464070;113;922708;-76
2022/01/09 02:23:17;;;;;;;1.79;1.32;;;;;;;-0.48;55.76;101326.16;463684;113;922548;-75
2022/01/09 02:24:23;;;;;;;1.28;1.01;;;;;;;-0.48;55.75;101332.37;462982;113;922687;-76
2022/01/09 02:25:26;;;;;;;2.06;1.58;;;;;;;-0.47;55.75;101330.55;463494;113;923064;-74
2022/01/09 02:26:31;;;;;;;3.17;1.34;;;;;;;-0.46;55.72;101330.43;463642;112;922679;-76
2022/01/09 02:27:34;;;;;;;1.90;1.26;;;;;;;-0.44;55.76;101332.95;463259;113;922791;-76
2022/01/09 02:28:38;;;;;;;2.63;1.40;;;;;;;-0.44;55.80;101331.13;463513;113;923026;-75
2022/01/09 02:29:41;;;;;;;1.77;1.10;;;;;;;-0.41;55.74;101322.01;464171;113;922934;-77
2022/01/09 02:30:45;;;;;;;2.43;1.12;;;;;;;-0.39;55.60;101324.57;463052;113;926497;-76
2022/01/09 02:31:49;;;;;;;1.41;1.21;;;;;;;-0.39;55.59;101324.57;462890;112;922696;-74
2022/01/09 02:32:52;;;;;;;2.17;1.32;;;;;;;-0.40;55.32;101318.36;462290;113;922576;-75
2022/01/09 02:33:55;;;;;;;1.62;1.22;;;;;;;-0.40;55.34;101318.36;461885;113;922899;-75
2022/01/09 02:34:59;;;;;;;1.91;1.26;;;;;;;-0.41;55.35;101319.33;462633;113;922654;-76
2022/01/09 02:36:03;;;;;;;2.00;1.18;;;;;;;-0.42;55.40;101315.80;462446;113;930312;-75
2022/01/09 02:37:06;;;;;;;1.74;1.27;;;;;;;-0.40;55.47;101318.36;461886;113;922769;-76
2022/01/09 02:38:10;;;;;;;2.02;1.29;;;;;;;-0.39;55.56;101314.70;461544;113;922941;-76
2022/01/09 02:39:13;;;;;;;1.34;1.17;;;;;;;-0.38;55.48;101308.34;461337;113;922624;-75
2022/01/09 02:40:17;;;;;;;4.15;1.30;;;;;;;-0.37;55.47;101302.02;461685;113;925717;-76
2022/01/09 02:41:20;;;;;;;1.64;1.26;;;;;;;-0.35;55.40;101307.25;463807;113;922474;-75
2022/01/09 02:42:27;;;;;;;2.16;1.35;;;;;;;-0.35;55.18;101300.07;464121;113;922940;-75
2022/01/09 02:43:31;;;;;;;1.80;1.25;;;;;;;-0.36;55.13;101298.37;464235;113;922562;-75
2022/01/09 02:44:34;;;;;;;1.81;1.31;;;;;;;-0.35;55.15;101307.25;463783;113;922635;-76
2022/01/09 02:45:37;;;;;;;1.80;1.16;;;;;;;-0.35;55.21;101304.58;463663;112;930293;-76
2022/01/09 02:47:03;;;;;;;2.02;1.39;;;;;;;-0.36;55.28;101298.37;463180;113;922590;-75
2022/01/09 02:48:03;;;;;;;1.62;1.17;;;;;;;-0.35;55.26;101293.86;463828;113;924129;-75
2022/01/09 02:49:08;;;;;;;2.48;1.21;;;;;;;-0.36;55.33;101292.16;462313;113;922570;-76
2022/01/09 02:50:28;;;;;;;1.56;1.20;;;;;;;-0.33;55.36;101302.63;463335;113;922529;-76
2022/01/09 02:51:18;;;;;;;1.99;1.49;;;;;;;-0.33;55.38;101299.95;460720;113;922692;-75
2022/01/09 02:52:48;;;;;;;1.54;1.14;;;;;;;-0.32;55.40;101301.63;462872;113;922666;-75
2022/01/09 02:53:39;;;;;;;1.67;1.00;;;;;;;-0.31;55.39;101303.34;460838;113;922864;-75
2022/01/09 02:56:06;;;;;;;1.99;1.14;;;;;;;-0.27;55.32;101304.77;462152;113;922970;-76
2022/01/09 02:57:09;;;;;;;1.27;1.16;;;;;;;-0.26;55.33;101301.97;463311;113;922468;-75
2022/01/09 02:58:14;;;;;;;2.64;1.17;;;;;;;-0.24;55.27;101300.03;463051;113;922576;-75
2022/01/09 02:59:17;;;;;;;1.82;1.12;;;;;;;-0.22;55.27;101305.27;463108;113;930436;-75
2022/01/09 03:00:26;;;;;;;1.72;1.39;;;;;;;-0.21;55.32;101309.62;461975;113;922661;-75
2022/01/09 03:01:29;;;;;;;1.96;1.26;;;;;;;-0.20;55.42;101301.47;461984;113;923094;-75
2022/01/09 03:02:32;;;;;;;1.62;1.16;;;;;;;-0.16;55.40;101302.05;462980;112;923021;-75
2022/01/09 03:03:37;;;;;;;1.54;1.16;;;;;;;-0.13;55.38;101299.13;461157;113;922688;-76
2022/01/09 03:04:40;;;;;;;1.52;1.31;;;;;;;-0.12;55.21;101296.33;463714;111;930302;-76
2022/01/09 03:05:45;;;;;;;3.69;1.44;;;;;;;-0.09;55.17;101300.56;462939;113;930181;-75
2022/01/09 03:06:49;;;;;;;1.75;1.28;;;;;;;-0.08;55.11;101291.55;462326;113;930308;-78
2022/01/09 03:07:53;;;;;;;3.19;1.44;;;;;;;-0.07;55.07;101283.39;463014;113;923219;-74
2022/01/09 03:09:01;;;;;;;1.89;1.26;;;;;;;-0.05;54.92;101288.59;464095;113;922986;-75
2022/01/09 03:10:04;;;;;;;1.51;1.27;;;;;;;-0.06;54.89;101278.88;464213;113;922625;-75
2022/01/09 03:11:07;;;;;;;2.19;1.32;;;;;;;-0.05;54.94;101288.59;463679;113;923177;-74
2022/01/09 03:12:11;;;;;;;1.80;1.34;;;;;;;-0.07;54.91;101278.03;463347;113;923105;-74
2022/01/09 03:13:15;;;;;;;2.54;1.31;;;;;;;-0.07;55.00;101285.22;463713;113;922814;-75
2022/01/09 03:14:18;;;;;;;1.61;1.25;;;;;;;-0.07;55.07;101285.22;463295;113;930383;-73
2022/01/09 03:15:22;;;;;;;1.14;1.04;;;;;;;-0.07;55.05;101277.17;462727;112;924044;-76
2022/01/09 03:16:26;;;;;;;2.14;1.59;;;;;;;-0.06;55.08;101276.20;463375;113;923097;-75
2022/01/09 03:17:30;;;;;;;3.84;1.15;;;;;;;-0.06;55.09;101271.70;463092;113;922552;-75
2022/01/09 03:18:34;;;;;;;2.06;1.41;;;;;;;-0.05;55.16;101268.01;463169;113;922788;-77
2022/01/09 03:19:37;;;;;;;2.60;1.52;;;;;;;-0.04;55.23;101267.03;463051;113;930316;-77
2022/01/09 03:20:41;;;;;;;2.38;1.75;;;;;;;-0.04;55.19;101263.50;463140;113;923161;-76
2022/01/09 03:21:45;;;;;;;2.34;1.38;;;;;;;-0.03;55.17;101262.53;462714;113;922835;-76
2022/01/09 03:22:49;;;;;;;2.27;1.52;;;;;;;-0.04;55.12;101264.35;463429;113;922708;-75
2022/01/09 03:23:53;;;;;;;2.31;1.54;;;;;;;-0.04;55.16;101264.35;462327;113;922762;-76
2022/01/09 03:24:56;;;;;;;2.56;1.87;;;;;;;-0.04;55.22;101263.50;463819;113;922703;-76
2022/01/09 03:26:02;;;;;;;3.64;1.59;;;;;;;-0.04;55.20;101261.67;462792;113;922476;-75
2022/01/09 03:27:05;;;;;;;2.36;1.65;;;;;;;-0.03;55.17;101265.20;461629;112;922474;-76
2022/01/09 03:28:09;;;;;;;2.14;1.84;;;;;;;-0.04;55.22;101263.50;462008;113;922607;-76
2022/01/09 03:29:12;;;;;;;2.09;1.44;;;;;;;-0.03;55.35;101254.48;460797;113;922614;-75
2022/01/09 03:30:18;;;;;;;3.18;1.34;;;;;;;-0.03;55.26;101262.53;461338;113;922761;-75
2022/01/09 03:31:21;;;;;;;1.86;1.67;;;;;;;-0.02;55.19;101259.72;463279;113;930687;-74
2022/01/09 03:32:27;;;;;;;2.81;1.82;;;;;;;-0.02;55.18;101262.41;463501;113;922492;-75
2022/01/09 03:33:30;;;;;;;2.14;1.56;;;;;;;-0.01;55.13;101255.22;462801;113;922867;-74
2022/01/09 03:34:34;;;;;;;3.18;1.61;;;;;;;-0.01;55.17;101250.70;463255;113;922810;-77
2022/01/09 03:35:37;;;;;;;2.85;1.37;;;;;;;0.00;55.10;101262.28;463457;113;930289;-74
2022/01/09 03:36:41;;;;;;;2.09;1.42;;;;;;;-0.01;55.25;101260.58;463028;113;923376;-76
2022/01/09 03:37:46;;;;;;;1.52;1.23;;;;;;;0.00;55.29;101267.64;463679;113;922985;-76
2022/01/09 03:38:50;;;;;;;2.87;1.61;;;;;;;0.00;55.34;101256.92;462917;113;930418;-75
2022/01/09 03:39:54;;;;;;;1.58;1.15;;;;;;;0.00;55.24;101262.28;463190;113;922599;-76
2022/01/09 03:40:57;;;;;;;2.83;1.92;;;;;;;0.00;55.24;101262.28;462793;113;930376;-76
2022/01/09 03:42:01;;;;;;;3.67;1.49;;;;;;;0.00;55.34;101260.42;462141;113;922568;-76
2022/01/09 03:43:04;;;;;;;4.13;1.49;;;;;;;0.00;55.46;101255.06;462696;113;923290;-74
2022/01/09 03:44:08;;;;;;;2.96;1.51;;;;;;;0.01;55.48;101247.88;462533;113;922643;-75
2022/01/09 03:45:12;;;;;;;1.39;0.95;;;;;;;0.02;55.57;101241.54;462524;113;922705;-75
2022/01/09 03:46:15;;;;;;;2.22;1.78;;;;;;;0.04;55.52;101241.41;461941;113;922602;-75
2022/01/09 03:47:19;;;;;;;1.96;1.27;;;;;;;0.04;55.48;101242.27;462761;113;922984;-78
2022/01/09 03:48:22;;;;;;;1.56;1.15;;;;;;;0.03;55.40;101235.20;462841;113;930450;-76
2022/01/09 03:49:25;;;;;;;1.64;1.13;;;;;;;0.03;55.31;101228.98;461564;113;930251;-77
2022/01/09 03:50:29;;;;;;;2.13;1.49;;;;;;;0.03;55.32;101228.98;454871;114;923035;-75
2022/01/09 03:51:36;;;;;;;1.87;1.36;;;;;;;0.02;55.38;101233.50;455279;113;923648;-75
2022/01/09 03:52:39;;;;;;;1.69;1.24;;;;;;;0.03;55.43;101235.20;462454;113;922855;-76
2022/01/09 03:53:42;;;;;;;1.77;1.43;;;;;;;0.03;55.42;101234.34;461235;113;922548;-75
2022/01/09 03:54:46;;;;;;;2.08;1.41;;;;;;;0.03;55.45;101240.56;460495;113;922635;-75
2022/01/09 03:55:49;;;;;;;1.27;1.11;;;;;;;0.04;55.51;101236.91;461194;113;922664;-74
2022/01/09 03:56:53;;;;;;;1.78;1.37;;;;;;;0.04;55.44;101239.59;462911;113;922551;-74
2022/01/09 03:57:56;;;;;;;2.26;1.32;;;;;;;0.03;55.36;101237.88;462923;113;922540;-76
2022/01/09 03:59:00;;;;;;;1.99;1.47;;;;;;;0.03;55.43;101240.56;463273;113;923206;-76
2022/01/09 04:00:06;;;;;;;2.75;1.59;;;;;;;0.02;55.55;101228.13;463443;112;922736;-76
2022/01/09 04:01:10;;;;;;;3.90;1.64;;;;;;;0.03;55.60;101226.30;463417;113;922735;-75
2022/01/09 04:02:15;;;;;;;2.51;1.54;;;;;;;0.04;55.71;101230.69;463599;113;922653;-74
2022/01/09 04:03:18;;;;;;;2.45;1.72;;;;;;;0.05;55.73;101229.72;464097;113;922893;-75
2022/01/09 04:04:22;;;;;;;2.09;1.68;;;;;;;0.05;55.63;101221.67;462311;113;923071;-76
2022/01/09 04:05:26;;;;;;;2.26;1.66;;;;;;;0.04;55.58;101226.19;463423;113;930400;-76
2022/01/09 04:06:29;;;;;;;3.47;1.70;;;;;;;0.04;55.61;101220.82;455601;114;930445;-75
2022/01/09 04:07:32;;;;;;;2.96;1.84;;;;;;;0.02;55.73;101214.73;455404;113;930641;-77
2022/01/09 04:08:37;;;;;;;2.88;1.64;;;;;;;0.02;55.81;101211.20;462585;113;922759;-74
2022/01/09 04:09:43;;;;;;;2.61;1.97;;;;;;;0.01;55.90;101221.06;462479;113;922618;-75
2022/01/09 04:10:50;;;;;;;2.67;1.97;;;;;;;0.02;55.92;101217.41;463323;112;923295;-76
2022/01/09 04:11:55;;;;;;;2.47;2.08;;;;;;;0.03;56.01;101223.63;462615;113;922551;-76
2022/01/09 04:13:00;;;;;;;2.61;1.67;;;;;;;0.01;55.95;101215.70;462631;113;922667;-77
2022/01/09 04:14:03;;;;;;;2.51;1.36;;;;;;;0.00;55.94;101217.53;462967;112;922515;-74
2022/01/09 04:15:08;;;;;;;2.37;1.62;;;;;;;0.00;56.01;101214.84;462950;112;922465;-75
2022/01/09 04:16:12;;;;;;;2.88;1.38;;;;;;;0.02;56.09;101216.55;461879;113;930237;-75
2022/01/09 04:17:29;;;;;;;1.81;1.31;;;;;;;0.03;56.12;101208.39;461334;113;922608;-76
2022/01/09 04:18:25;;;;;;;2.33;1.69;;;;;;;0.03;56.15;101211.07;460430;113;930583;-77
2022/01/09 04:19:29;;;;;;;2.46;1.54;;;;;;;0.05;56.23;101216.31;461865;113;922741;-76
2022/01/09 04:20:32;;;;;;;2.76;1.49;;;;;;;0.06;56.31;101210.80;461614;113;922439;-75
2022/01/09 04:21:36;;;;;;;1.87;1.27;;;;;;;0.09;56.36;101215.06;463118;113;923065;-75
2022/01/09 04:22:40;;;;;;;1.96;1.56;;;;;;;0.10;56.38;101204.21;462424;113;922614;-76
2022/01/09 04:23:43;;;;;;;2.09;1.40;;;;;;;0.12;56.40;101199.55;463554;113;922957;-76
2022/01/09 04:24:47;;;;;;;1.70;1.49;;;;;;;0.14;56.41;101194.91;464278;113;923198;-75
2022/01/09 04:25:51;;;;;;;2.47;1.47;;;;;;;0.14;56.37;101194.91;464190;113;930183;-75
2022/01/09 04:26:55;;;;;;;1.47;1.06;;;;;;;0.16;56.37;101195.64;463562;113;922606;-76
2022/01/09 04:27:58;;;;;;;2.17;1.76;;;;;;;0.16;56.41;101192.95;463098;113;930714;-76
2022/01/09 04:29:03;;;;;;;2.09;1.43;;;;;;;0.19;56.47;101191.83;462678;112;930344;-77
2022/01/09 04:30:08;;;;;;;2.44;1.31;;;;;;;0.19;56.47;101189.14;453990;116;930558;-76
2022/01/09 04:31:11;;;;;;;1.88;1.65;;;;;;;0.18;56.45;101182.08;455117;113;923247;-74
2022/01/09 04:32:15;;;;;;;2.88;1.56;;;;;;;0.20;56.49;101182.80;463043;113;922514;-75
2022/01/09 04:33:18;;;;;;;2.60;2.16;;;;;;;0.19;56.46;101186.46;463427;113;925558;-76
2022/01/09 04:34:24;;;;;;;1.79;1.54;;;;;;;0.19;56.51;101184.63;462061;113;930393;-75
2022/01/09 04:35:27;;;;;;;2.93;1.86;;;;;;;0.19;56.60;101181.09;462882;113;922637;-76
2022/01/09 04:36:31;;;;;;;4.43;2.38;;;;;;;0.19;56.65;101181.95;463078;113;922643;-75
2022/01/09 04:37:35;;;;;;;1.92;1.74;;;;;;;0.18;56.67;101185.61;463018;113;922542;-76
2022/01/09 04:38:39;;;;;;;2.28;1.66;;;;;;;0.20;56.68;101178.30;462202;113;930463;-76
2022/01/09 04:39:45;;;;;;;1.72;1.57;;;;;;;0.21;56.68;101181.83;461929;113;930752;-74
2022/01/09 04:40:48;;;;;;;3.15;2.13;;;;;;;0.20;56.69;101175.61;462219;113;925627;-75
2022/01/09 04:41:51;;;;;;;2.98;2.12;;;;;;;0.21;56.73;101179.14;462587;113;922692;-75
2022/01/09 04:42:58;;;;;;;2.91;1.90;;;;;;;0.22;56.83;101186.22;462297;113;923211;-75
2022/01/09 04:44:00;;;;;;;2.56;2.06;;;;;;;0.22;56.80;101173.63;460521;113;930432;-74
2022/01/09 04:45:06;;;;;;;2.85;2.00;;;;;;;0.23;56.78;101175.33;461574;113;922614;-75
2022/01/09 04:46:13;;;;;;;2.48;1.77;;;;;;;0.24;56.82;101178.86;463750;113;922472;-75
2022/01/09 04:47:17;;;;;;;3.06;2.06;;;;;;;0.25;56.81;101178.73;462759;113;922613;-75
2022/01/09 04:48:20;;;;;;;2.21;1.59;;;;;;;0.25;56.82;101170.69;463478;113;922627;-77
2022/01/09 04:49:28;;;;;;;2.98;2.14;;;;;;;0.26;56.74;101174.23;463652;113;922474;-76
2022/01/09 04:50:32;;;;;;;2.05;1.69;;;;;;;0.25;56.83;101176.05;463897;112;922620;-74
2022/01/09 04:51:35;;;;;;;3.12;1.84;;;;;;;0.24;56.87;101173.50;463820;113;922536;-76
2022/01/09 04:52:39;;;;;;;2.64;1.61;;;;;;;0.25;56.92;101169.84;463799;113;922577;-74
2022/01/09 04:53:43;;;;;;;2.44;1.62;;;;;;;0.25;56.97;101176.05;463371;113;930345;-75
2022/01/09 04:54:47;;;;;;;2.85;2.07;;;;;;;0.26;57.01;101171.55;462656;113;922849;-75
2022/01/09 04:55:50;;;;;;;2.97;2.38;;;;;;;0.27;57.02;101167.89;463442;113;922817;-75
2022/01/09 04:56:54;;;;;;;2.72;1.84;;;;;;;0.27;56.96;101165.20;463754;113;922730;-75
2022/01/09 04:57:58;;;;;;;2.96;2.10;;;;;;;0.28;56.95;101159.69;463110;113;923144;-75